Time;durP1;ratioP1;P1;durP2;ratioP2;P2;SDS_P1;SDS_P2;PMS_P1;PMS_P2;Temp;Humidity;BMP_temperature;BMP_pressure;BME280_temperature;BME280_humidity;BME280_pressure;Samples;Min_cycle;Max_cycle;Signal;HPM_P1;HPM_P2
2021/11/14 00:00:52;;;;;;;;;;;;;;;8.30;100.00;101468.75;2091031;28;20389;-64
2021/11/14 00:01:53;;;;;;;;;;;;;;;8.31;100.00;101467.03;2083868;28;19980;-64
2021/11/14 00:02:54;;;;;;;;;;;;;;;8.32;100.00;101473.94;2091094;28;20387;-64
2021/11/14 00:03:54;;;;;;;;;;;;;;;8.32;100.00;101468.72;2090792;28;19984;-64
2021/11/14 00:04:54;;;;;;;;;;;;;;;8.31;100.00;101469.63;2091076;28;19909;-64
2021/11/14 00:05:55;;;;;;;;;;;;;;;8.32;100.00;101468.72;2091644;28;19908;-63
2021/11/14 00:06:55;;;;;;;;;;;;;;;8.31;100.00;101473.06;2091505;28;20361;-64
2021/11/14 00:07:55;;;;;;;;;;;;;;;8.30;100.00;101480.91;2091610;28;19970;-64
2021/11/14 00:08:55;;;;;;;;;;;;;;;8.27;100.00;101475.75;2091674;28;19923;-64
2021/11/14 00:09:56;;;;;;;;;;;;;;;8.28;100.00;101477.50;2091635;28;19913;-64
2021/11/14 00:10:57;;;;;;;;;;;;;;;8.28;100.00;101474.91;2090994;28;19934;-64
2021/11/14 00:11:58;;;;;;;;;;;;;;;8.29;100.00;101484.41;2082902;28;19910;-64
2021/11/14 00:12:58;;;;;;;;;;;;;;;8.29;100.00;101479.19;2091009;28;20393;-64
2021/11/14 00:13:58;;;;;;;;;;;;;;;8.30;100.00;101486.09;2091583;28;19912;-64
2021/11/14 00:14:58;;;;;;;;;;;;;;;8.30;100.00;101483.50;2091641;28;19912;-64
2021/11/14 00:15:59;;;;;;;;;;;;;;;8.30;100.00;101481.75;2091613;28;20285;-64
2021/11/14 00:16:59;;;;;;;;;;;;;;;8.29;100.00;101485.25;2091723;28;19917;-64
2021/11/14 00:18:00;;;;;;;;;;;;;;;8.29;100.00;101487.88;2091500;28;19951;-64
2021/11/14 00:19:00;;;;;;;;;;;;;;;8.28;100.00;101483.53;2091514;28;19913;-63
2021/11/14 00:20:02;;;;;;;;;;;;;;;8.30;100.00;101481.75;2091573;28;19912;-63
2021/11/14 00:21:02;;;;;;;;;;;;;;;8.31;100.00;101493.03;2090844;28;19908;-64
2021/11/14 00:22:02;;;;;;;;;;;;;;;8.32;100.00;101481.72;2090920;28;20397;-63
2021/11/14 00:23:04;;;;;;;;;;;;;;;8.33;100.00;101486.03;2090847;28;19939;-64
2021/11/14 00:24:04;;;;;;;;;;;;;;;8.32;100.00;101490.38;2091143;28;19916;-64
2021/11/14 00:25:06;;;;;;;;;;;;;;;8.32;100.00;101494.75;2091477;28;19909;-64
2021/11/14 00:26:07;;;;;;;;;;;;;;;8.31;100.00;101493.03;2090815;28;20370;-64
2021/11/14 00:27:08;;;;;;;;;;;;;;;8.29;100.00;101500.00;2090813;28;19929;-64
2021/11/14 00:28:11;;;;;;;;;;;;;;;8.28;100.00;101495.69;2090843;28;19952;-63
2021/11/14 00:29:11;;;;;;;;;;;;;;;8.27;100.00;101493.97;2091559;28;19999;-63
2021/11/14 00:30:12;;;;;;;;;;;;;;;8.27;100.00;101501.75;2090811;28;19909;-65
2021/11/14 00:31:14;;;;;;;;;;;;;;;8.25;100.00;101494.84;2090829;28;19913;-64
2021/11/14 00:32:14;;;;;;;;;;;;;;;8.25;100.00;101494.84;2091509;28;20346;-64
2021/11/14 00:33:16;;;;;;;;;;;;;;;8.26;100.00;101498.31;2091440;28;19947;-64
2021/11/14 00:34:16;;;;;;;;;;;;;;;8.27;100.00;101496.56;2091416;28;19958;-64
2021/11/14 00:35:17;;;;;;;;;;;;;;;8.27;100.00;101502.63;2091502;28;19959;-64
2021/11/14 00:36:19;;;;;;;;;;;;;;;8.27;100.00;101504.38;2090831;28;19912;-64
2021/11/14 00:37:19;;;;;;;;;;;;;;;8.25;100.00;101500.06;2090857;28;19967;-64
2021/11/14 00:38:20;;;;;;;;;;;;;;;8.24;100.00;101498.34;2091405;28;20384;-64
2021/11/14 00:39:20;;;;;;;;;;;;;;;8.24;100.00;101503.56;2091367;28;19916;-64
2021/11/14 00:40:26;;;;;;;;;;;;;;;8.23;100.00;101501.84;2091395;28;19912;-64
2021/11/14 00:41:27;;;;;;;;;;;;;;;8.23;100.00;101508.78;2090713;28;19912;-64
2021/11/14 00:42:27;;;;;;;;;;;;;;;8.23;100.00;101501.00;2090852;28;19909;-64
2021/11/14 00:43:27;;;;;;;;;;;;;;;8.23;100.00;101501.84;2091250;28;19909;-64
2021/11/14 00:44:27;;;;;;;;;;;;;;;8.21;100.00;101503.63;2091390;28;19908;-64
2021/11/14 00:45:28;;;;;;;;;;;;;;;8.21;100.00;101505.38;2090687;28;19916;-64
2021/11/14 00:46:28;;;;;;;;;;;;;;;8.20;100.00;101507.13;2090756;28;19913;-64
2021/11/14 00:47:29;;;;;;;;;;;;;;;8.19;100.00;101505.41;2091381;28;20467;-64
2021/11/14 00:48:29;;;;;;;;;;;;;;;8.18;100.00;101502.84;2091293;28;19956;-64
2021/11/14 00:49:29;;;;;;;;;;;;;;;8.19;100.00;101502.81;2091399;28;19909;-64
2021/11/14 00:50:30;;;;;;;;;;;;;;;8.19;100.00;101505.41;2091315;28;19951;-64
2021/11/14 00:51:31;;;;;;;;;;;;;;;8.19;100.00;101505.41;2091327;28;19912;-64
2021/11/14 00:52:31;;;;;;;;;;;;;;;8.20;100.00;101503.66;2091247;28;20328;-64
2021/11/14 00:53:31;;;;;;;;;;;;;;;8.21;100.00;101502.78;2091278;28;19919;-64
2021/11/14 00:54:32;;;;;;;;;;;;;;;8.21;100.00;101501.03;2091283;28;19909;-64
2021/11/14 00:55:34;;;;;;;;;;;;;;;8.22;100.00;101500.13;2090530;28;19912;-64
2021/11/14 00:56:34;;;;;;;;;;;;;;;8.22;100.00;101502.72;2090713;28;19913;-64
2021/11/14 00:57:34;;;;;;;;;;;;;;;8.21;100.00;101502.78;2091284;28;19908;-64
2021/11/14 00:58:35;;;;;;;;;;;;;;;8.22;100.00;101501.88;2090599;28;19951;-64
2021/11/14 00:59:35;;;;;;;;;;;;;;;8.21;100.00;101503.63;2090705;28;20389;-64
2021/11/14 01:00:36;;;;;;;;;;;;;;;8.21;100.00;101501.03;2091241;28;19915;-64
2021/11/14 01:01:36;;;;;;;;;;;;;;;8.22;100.00;101505.31;2091283;28;19966;-64
2021/11/14 01:02:37;;;;;;;;;;;;;;;8.22;100.00;101510.53;2090587;28;20301;-63
2021/11/14 01:03:37;;;;;;;;;;;;;;;8.22;100.00;101505.31;2090642;28;19931;-64
2021/11/14 01:04:38;;;;;;;;;;;;;;;8.23;100.00;101506.19;2090330;28;19971;-64
2021/11/14 01:05:41;;;;;;;;;;;;;;;8.23;100.00;101507.06;2090631;28;19912;-64
2021/11/14 01:06:41;;;;;;;;;;;;;;;8.23;100.00;101516.59;2091196;28;19917;-64
2021/11/14 01:07:42;;;;;;;;;;;;;;;8.21;100.00;101519.22;2091028;28;19923;-63
2021/11/14 01:08:42;;;;;;;;;;;;;;;8.21;100.00;101508.81;2093904;28;20342;-64
2021/11/14 01:09:42;;;;;;;;;;;;;;;8.21;100.00;101513.19;2091187;28;19913;-64
2021/11/14 01:10:45;;;;;;;;;;;;;;;8.21;100.00;101514.03;2091176;28;20003;-64
2021/11/14 01:11:45;;;;;;;;;;;;;;;8.20;100.00;101509.72;2091146;28;19952;-64
2021/11/14 01:12:46;;;;;;;;;;;;;;;8.19;100.00;101505.41;2091198;28;19915;-64
2021/11/14 01:13:47;;;;;;;;;;;;;;;8.19;100.00;101510.63;2093904;28;19909;-64
2021/11/14 01:14:47;;;;;;;;;;;;;;;8.19;100.00;101504.53;2091085;28;20204;-64
2021/11/14 01:15:48;;;;;;;;;;;;;;;8.20;100.00;101512.31;2091141;28;19971;-64
2021/11/14 01:16:48;;;;;;;;;;;;;;;8.20;100.00;101516.66;2091047;28;20317;-64
2021/11/14 01:17:49;;;;;;;;;;;;;;;8.20;100.00;101512.31;2091110;28;19923;-64
2021/11/14 01:18:49;;;;;;;;;;;;;;;8.19;100.00;101515.81;2091070;28;19956;-64
2021/11/14 01:19:50;;;;;;;;;;;;;;;8.18;100.00;101514.09;2091034;28;19912;-64
2021/11/14 01:20:51;;;;;;;;;;;;;;;8.18;100.00;101516.69;2091106;28;19959;-64
2021/11/14 01:21:52;;;;;;;;;;;;;;;8.19;100.00;101521.00;2093878;28;19970;-64
2021/11/14 01:22:52;;;;;;;;;;;;;;;8.19;100.00;101522.75;2091043;28;19943;-64
2021/11/14 01:23:55;;;;;;;;;;;;;;;8.19;100.00;101526.22;2090335;28;19909;-64
2021/11/14 01:24:55;;;;;;;;;;;;;;;8.20;100.00;101530.53;2090513;28;19915;-63
2021/11/14 01:25:55;;;;;;;;;;;;;;;8.21;100.00;101529.63;2091098;28;19909;-63
2021/11/14 01:26:55;;;;;;;;;;;;;;;8.20;100.00;101529.66;2090281;28;19913;-63
2021/11/14 01:27:56;;;;;;;;;;;;;;;8.19;100.00;101536.63;2090330;28;19912;-63
2021/11/14 01:28:56;;;;;;;;;;;;;;;8.19;100.00;101531.41;2090910;28;19909;-64
2021/11/14 01:29:57;;;;;;;;;;;;;;;8.20;100.00;101534.84;2090912;28;19935;-64
2021/11/14 01:30:57;;;;;;;;;;;;;;;8.21;100.00;101528.78;2090962;28;19955;-64
2021/11/14 01:31:58;;;;;;;;;;;;;;;8.21;100.00;101540.03;2090843;28;19948;-63
2021/11/14 01:33:00;;;;;;;;;;;;;;;8.21;100.00;101534.00;2090326;28;20349;-64
2021/11/14 01:34:00;;;;;;;;;;;;;;;8.19;100.00;101535.75;2093111;28;19978;-64
2021/11/14 01:35:00;;;;;;;;;;;;;;;8.18;100.00;101537.47;2090771;28;19935;-64
2021/11/14 01:36:01;;;;;;;;;;;;;;;8.18;100.00;101539.25;2090210;28;19988;-64
2021/11/14 01:37:01;;;;;;;;;;;;;;;8.18;100.00;101542.69;2090368;28;19927;-63
2021/11/14 01:38:04;;;;;;;;;;;;;;;8.18;100.00;101547.88;2090944;28;20422;-63
2021/11/14 01:39:06;;;;;;;;;;;;;;;8.16;100.00;101539.28;2093766;28;20366;-63
2021/11/14 01:40:06;;;;;;;;;;;;;;;8.16;100.00;101538.41;2090916;28;19916;-63
2021/11/14 01:41:09;;;;;;;;;;;;;;;8.15;100.00;101545.38;2090901;28;19935;-65
2021/11/14 01:42:09;;;;;;;;;;;;;;;8.16;100.00;101541.88;2090889;28;19908;-64
2021/11/14 01:43:11;;;;;;;;;;;;;;;8.16;100.00;101546.22;2090978;28;19908;-64
2021/11/14 01:44:13;;;;;;;;;;;;;;;8.17;100.00;101538.38;2090810;28;20203;-64
2021/11/14 01:45:14;;;;;;;;;;;;;;;8.17;100.00;101548.78;2090227;28;19908;-63
2021/11/14 01:46:14;;;;;;;;;;;;;;;8.17;100.00;101543.56;2081967;28;20010;-64
2021/11/14 01:47:15;;;;;;;;;;;;;;;8.17;100.00;101543.56;2090245;28;19966;-64
2021/11/14 01:48:16;;;;;;;;;;;;;;;8.17;100.00;101543.56;2090158;28;19913;-63
2021/11/14 01:49:16;;;;;;;;;;;;;;;8.18;100.00;101550.47;2093066;28;19954;-64
2021/11/14 01:50:16;;;;;;;;;;;;;;;8.19;100.00;101547.03;2090814;28;19963;-63
2021/11/14 01:51:18;;;;;;;;;;;;;;;8.18;100.00;101547.88;2090857;28;20003;-63
2021/11/14 01:52:28;;;;;;;;;;;;;;;8.18;100.00;101554.84;2090710;28;19958;-63
2021/11/14 01:53:30;;;;;;;;;;;;;;;8.17;100.00;101548.78;2090813;28;19935;-63
2021/11/14 01:54:30;;;;;;;;;;;;;;;8.18;100.00;101550.47;2090833;28;19913;-63
2021/11/14 01:55:31;;;;;;;;;;;;;;;8.18;100.00;101549.66;2090760;28;20365;-63
2021/11/14 01:56:32;;;;;;;;;;;;;;;8.18;100.00;101557.44;2090647;28;19909;-63
2021/11/14 01:57:32;;;;;;;;;;;;;;;8.17;100.00;101547.91;2090808;28;19909;-63
2021/11/14 01:58:33;;;;;;;;;;;;;;;8.18;100.00;101549.66;2090800;28;19916;-63
2021/11/14 01:59:35;;;;;;;;;;;;;;;8.18;100.00;101558.28;2090186;28;19909;-63
2021/11/14 02:00:40;;;;;;;;;;;;;;;8.19;100.00;101557.41;2090257;28;19909;-63
2021/11/14 02:01:40;;;;;;;;;;;;;;;8.20;100.00;101556.53;2089924;28;19914;-63
2021/11/14 02:02:41;;;;;;;;;;;;;;;8.19;100.00;101560.03;2090090;28;19912;-63
2021/11/14 02:03:43;;;;;;;;;;;;;;;8.19;100.00;101564.34;2090798;28;19948;-63
2021/11/14 02:04:44;;;;;;;;;;;;;;;8.19;100.00;101567.81;2089906;28;19963;-63
2021/11/14 02:05:44;;;;;;;;;;;;;;;8.17;100.00;101561.78;2090175;28;19915;-63
2021/11/14 02:06:46;;;;;;;;;;;;;;;8.18;100.00;101553.09;2090737;28;19909;-63
2021/11/14 02:07:47;;;;;;;;;;;;;;;8.14;100.00;101564.44;2090680;28;19913;-63
2021/11/14 02:08:47;;;;;;;;;;;;;;;8.15;100.00;101568.78;2089930;28;20389;-63
2021/11/14 02:09:48;;;;;;;;;;;;;;;8.15;100.00;101566.16;2090115;28;19908;-63
2021/11/14 02:10:50;;;;;;;;;;;;;;;8.12;100.00;101561.88;2090659;28;20377;-63
2021/11/14 02:11:50;;;;;;;;;;;;;;;8.12;100.00;101564.47;2090724;28;20003;-63
2021/11/14 02:12:51;;;;;;;;;;;;;;;8.12;100.00;101566.22;2090686;28;20332;-63
2021/11/14 02:13:51;;;;;;;;;;;;;;;8.10;100.00;101563.66;2090085;28;20007;-63
2021/11/14 02:14:51;;;;;;;;;;;;;;;8.10;100.00;101568.84;2090018;28;19909;-63
2021/11/14 02:15:52;;;;;;;;;;;;;;;8.11;100.00;101569.72;2090114;28;20282;-64
2021/11/14 02:16:52;;;;;;;;;;;;;;;8.12;100.00;101571.44;2081748;28;19913;-62
2021/11/14 02:17:53;;;;;;;;;;;;;;;8.10;100.00;101570.59;2090089;28;19963;-63
2021/11/14 02:18:53;;;;;;;;;;;;;;;8.09;100.00;101568.88;2090667;28;19909;-63
2021/11/14 02:19:53;;;;;;;;;;;;;;;8.09;100.00;101571.47;2090687;28;20415;-63
2021/11/14 02:20:54;;;;;;;;;;;;;;;8.09;100.00;101576.69;2090573;28;19909;-63
2021/11/14 02:21:54;;;;;;;;;;;;;;;8.09;100.00;101576.69;2090732;28;19909;-63
2021/11/14 02:22:55;;;;;;;;;;;;;;;8.10;100.00;101578.38;2089955;28;20374;-63
2021/11/14 02:23:55;;;;;;;;;;;;;;;8.10;100.00;101575.78;2090055;28;19927;-63
2021/11/14 02:24:56;;;;;;;;;;;;;;;8.11;100.00;101574.94;2090663;28;20338;-64
2021/11/14 02:25:57;;;;;;;;;;;;;;;8.09;100.00;101584.47;2090663;28;19952;-64
2021/11/14 02:26:57;;;;;;;;;;;;;;;8.08;100.00;101588.81;2093276;28;20305;-64
2021/11/14 02:27:57;;;;;;;;;;;;;;;8.07;100.00;101583.63;2089947;28;19939;-64
2021/11/14 02:28:57;;;;;;;;;;;;;;;8.08;100.00;101583.63;2090062;28;20285;-63
2021/11/14 02:29:57;;;;;;;;;;;;;;;8.09;100.00;101587.09;2081723;28;19944;-63
2021/11/14 02:30:58;;;;;;;;;;;;;;;8.05;100.00;101588.03;2090010;28;20321;-64
2021/11/14 02:31:58;;;;;;;;;;;;;;;8.08;100.00;101580.19;2093308;28;19916;-63
2021/11/14 02:32:59;;;;;;;;;;;;;;;8.08;100.00;101586.22;2089864;28;20248;-64
2021/11/14 02:34:00;;;;;;;;;;;;;;;8.07;100.00;101587.09;2089992;28;19970;-64
2021/11/14 02:35:00;;;;;;;;;;;;;;;8.08;100.00;101591.41;2089924;28;19909;-64
2021/11/14 02:36:05;;;;;;;;;;;;;;;8.08;100.00;101591.41;2081721;28;19917;-64
2021/11/14 02:37:05;;;;;;;;;;;;;;;8.10;100.00;101591.38;2089963;28;19952;-64
2021/11/14 02:38:06;;;;;;;;;;;;;;;8.09;100.00;101587.94;2090547;28;19909;-64
2021/11/14 02:39:07;;;;;;;;;;;;;;;8.09;100.00;101593.16;2089869;28;19939;-64
2021/11/14 02:40:08;;;;;;;;;;;;;;;8.08;100.00;101591.41;2089767;28;20309;-63
2021/11/14 02:41:09;;;;;;;;;;;;;;;8.10;100.00;101596.59;2089924;28;20410;-64
2021/11/14 02:42:09;;;;;;;;;;;;;;;8.10;100.00;101593.97;2090622;28;20381;-63
2021/11/14 02:43:10;;;;;;;;;;;;;;;8.09;100.00;101592.28;2090598;28;19919;-62
2021/11/14 02:44:11;;;;;;;;;;;;;;;8.08;100.00;101595.78;2090044;28;19998;-63
2021/11/14 02:45:11;;;;;;;;;;;;;;;8.09;100.00;101602.69;2089884;28;19909;-64
2021/11/14 02:46:11;;;;;;;;;;;;;;;8.08;100.00;101598.38;2090553;28;19908;-62
2021/11/14 02:47:12;;;;;;;;;;;;;;;8.09;100.00;101598.34;2091982;28;20313;-63
2021/11/14 02:48:13;;;;;;;;;;;;;;;8.05;100.00;101596.69;2092293;28;20292;-63
2021/11/14 02:49:13;;;;;;;;;;;;;;;8.08;100.00;101600.97;2092319;28;19908;-64
2021/11/14 02:50:14;;;;;;;;;;;;;;;8.09;100.00;101598.34;2091601;28;20385;-63
2021/11/14 02:51:18;;;;;;;;;;;;;;;8.09;100.00;101597.47;2091708;28;19909;-64
2021/11/14 02:52:19;;;;;;;;;;;;;;;8.09;100.00;101600.09;2092318;28;19913;-63
2021/11/14 02:53:19;;;;;;;;;;;;;;;8.08;100.00;101598.38;2091660;28;19912;-63
2021/11/14 02:54:20;;;;;;;;;;;;;;;8.05;100.00;101596.69;2091678;28;19909;-63
2021/11/14 02:55:22;;;;;;;;;;;;;;;8.08;100.00;101606.19;2092274;28;20106;-63
2021/11/14 02:56:23;;;;;;;;;;;;;;;8.08;100.00;101611.38;2091532;28;19909;-64
2021/11/14 02:57:23;;;;;;;;;;;;;;;8.07;100.00;101604.44;2091522;28;20094;-64
2021/11/14 02:58:24;;;;;;;;;;;;;;;8.05;100.00;101606.22;2092120;28;19913;-64
2021/11/14 02:59:24;;;;;;;;;;;;;;;8.05;100.00;101608.81;2092165;28;19908;-63
2021/11/14 03:00:32;;;;;;;;;;;;;;;8.05;100.00;101607.09;2092149;28;19913;-63
2021/11/14 03:01:34;;;;;;;;;;;;;;;8.04;100.00;101599.31;2092156;28;19908;-63
2021/11/14 03:02:34;;;;;;;;;;;;;;;8.05;100.00;101606.22;2092198;28;19931;-63
2021/11/14 03:03:35;;;;;;;;;;;;;;;8.05;100.00;101603.63;2092142;28;19912;-63
2021/11/14 03:04:35;;;;;;;;;;;;;;;8.03;100.00;101602.78;2091973;28;19916;-63
2021/11/14 03:05:35;;;;;;;;;;;;;;;8.03;100.00;101602.78;2092122;28;19912;-63
2021/11/14 03:06:35;;;;;;;;;;;;;;;8.02;100.00;101606.28;2091425;28;19909;-63
2021/11/14 03:07:36;;;;;;;;;;;;;;;8.00;100.00;101608.91;2091486;28;19938;-63
2021/11/14 03:08:36;;;;;;;;;;;;;;;8.01;100.00;101607.19;2092110;28;19967;-63
2021/11/14 03:09:37;;;;;;;;;;;;;;;8.01;100.00;101607.19;2091351;28;19909;-63
2021/11/14 03:10:37;;;;;;;;;;;;;;;8.02;100.00;101606.28;2091562;28;19947;-63
2021/11/14 03:11:37;;;;;;;;;;;;;;;8.02;100.00;101611.47;2092044;28;19913;-63
2021/11/14 03:12:38;;;;;;;;;;;;;;;7.99;100.00;101610.66;2091402;28;19959;-63
2021/11/14 03:13:38;;;;;;;;;;;;;;;7.99;100.00;101610.66;2091517;28;20491;-63
2021/11/14 03:14:38;;;;;;;;;;;;;;;7.98;100.00;101614.13;2092049;28;19951;-63
2021/11/14 03:15:41;;;;;;;;;;;;;;;7.98;100.00;101611.53;2092049;28;19916;-63
2021/11/14 03:16:42;;;;;;;;;;;;;;;8.00;100.00;101611.50;2092019;28;19917;-63
2021/11/14 03:17:42;;;;;;;;;;;;;;;8.00;100.00;101614.09;2092124;28;19944;-63
2021/11/14 03:18:43;;;;;;;;;;;;;;;7.99;100.00;101615.00;2092075;28;20316;-63
2021/11/14 03:19:43;;;;;;;;;;;;;;;7.99;100.00;101612.41;2092109;28;19956;-64
2021/11/14 03:20:44;;;;;;;;;;;;;;;7.98;100.00;101615.91;2092016;28;19912;-63
2021/11/14 03:21:45;;;;;;;;;;;;;;;7.99;100.00;101610.66;2091901;28;19959;-63
2021/11/14 03:22:45;;;;;;;;;;;;;;;7.98;100.00;101614.13;2092003;28;20333;-65
2021/11/14 03:23:45;;;;;;;;;;;;;;;7.98;100.00;101614.13;2091996;28;19913;-63
2021/11/14 03:24:45;;;;;;;;;;;;;;;7.97;100.00;101615.03;2091360;28;19946;-63
2021/11/14 03:25:46;;;;;;;;;;;;;;;7.97;100.00;101622.81;2091307;28;19909;-63
2021/11/14 03:26:47;;;;;;;;;;;;;;;7.96;100.00;101612.44;2091378;28;19909;-64
2021/11/14 03:27:47;;;;;;;;;;;;;;;7.97;100.00;101625.41;2091258;28;19912;-64
2021/11/14 03:28:47;;;;;;;;;;;;;;;7.97;100.00;101615.03;2091329;28;20309;-64
2021/11/14 03:29:47;;;;;;;;;;;;;;;7.96;100.00;101626.31;2091921;28;19908;-64
2021/11/14 03:30:52;;;;;;;;;;;;;;;7.96;100.00;101626.31;2091930;28;19913;-63
2021/11/14 03:31:53;;;;;;;;;;;;;;;7.95;100.00;101618.53;2094633;28;19915;-62
2021/11/14 03:32:54;;;;;;;;;;;;;;;7.96;100.00;101625.44;2091836;28;20286;-62
2021/11/14 03:33:56;;;;;;;;;;;;;;;7.94;100.00;101620.28;2091874;28;19908;-63
2021/11/14 03:34:56;;;;;;;;;;;;;;;7.94;100.00;101625.47;2091849;28;19932;-64
2021/11/14 03:35:58;;;;;;;;;;;;;;;7.95;100.00;101632.41;2091954;28;20354;-63
2021/11/14 03:36:58;;;;;;;;;;;;;;;7.96;100.00;101623.72;2094643;28;20019;-63
2021/11/14 03:37:58;;;;;;;;;;;;;;;7.95;100.00;101627.22;2091926;28;19921;-63
2021/11/14 03:39:04;;;;;;;;;;;;;;;7.94;100.00;101620.28;2091938;28;19970;-63
2021/11/14 03:40:09;;;;;;;;;;;;;;;7.94;100.00;101632.44;2091797;28;20121;-63
2021/11/14 03:41:10;;;;;;;;;;;;;;;7.94;100.00;101629.84;2091928;28;19919;-63
2021/11/14 03:42:10;;;;;;;;;;;;;;;7.94;100.00;101633.28;2091909;28;19930;-63
2021/11/14 03:43:11;;;;;;;;;;;;;;;7.94;100.00;101633.28;2091879;28;19939;-63
2021/11/14 03:44:12;;;;;;;;;;;;;;;7.93;100.00;101631.56;2091892;28;19909;-65
2021/11/14 03:45:12;;;;;;;;;;;;;;;7.92;100.00;101627.25;2091953;28;19915;-63
2021/11/14 03:46:13;;;;;;;;;;;;;;;7.94;100.00;101640.22;2091833;28;19916;-64
2021/11/14 03:47:13;;;;;;;;;;;;;;;7.93;100.00;101631.56;2091741;28;20066;-64
2021/11/14 03:48:14;;;;;;;;;;;;;;;7.93;100.00;101636.75;2091201;28;19909;-63
2021/11/14 03:49:14;;;;;;;;;;;;;;;7.94;100.00;101641.06;2091136;28;19909;-64
2021/11/14 03:50:14;;;;;;;;;;;;;;;7.93;100.00;101643.69;2091108;28;19916;-64
2021/11/14 03:51:15;;;;;;;;;;;;;;;7.92;100.00;101642.00;2091128;28;19913;-64
2021/11/14 03:52:15;;;;;;;;;;;;;;;7.93;100.00;101646.28;2091173;28;19908;-64
2021/11/14 03:53:15;;;;;;;;;;;;;;;7.92;100.00;101642.84;2091757;28;19919;-64
2021/11/14 03:54:15;;;;;;;;;;;;;;;7.92;100.00;101647.19;2091787;28;20396;-64
2021/11/14 03:55:16;;;;;;;;;;;;;;;7.90;100.00;101649.81;2091730;28;19909;-64
2021/11/14 03:56:16;;;;;;;;;;;;;;;7.91;100.00;101654.16;2091774;28;20385;-63
2021/11/14 03:57:16;;;;;;;;;;;;;;;7.90;100.00;101648.97;2091796;28;19908;-64
2021/11/14 03:58:17;;;;;;;;;;;;;;;7.91;100.00;101654.16;2091605;28;19912;-64
2021/11/14 03:59:17;;;;;;;;;;;;;;;7.91;100.00;101656.75;2091781;28;19943;-64
2021/11/14 04:00:19;;;;;;;;;;;;;;;7.93;100.00;101654.97;2091782;28;19909;-64
2021/11/14 04:01:20;;;;;;;;;;;;;;;7.91;100.00;101664.53;2091637;28;19909;-64
2021/11/14 04:02:21;;;;;;;;;;;;;;;7.92;100.00;101654.97;2091107;28;19955;-64
2021/11/14 04:03:21;;;;;;;;;;;;;;;7.91;100.00;101656.75;2091144;28;19908;-64
2021/11/14 04:04:22;;;;;;;;;;;;;;;7.92;100.00;101658.44;2091548;28;19920;-64
2021/11/14 04:05:23;;;;;;;;;;;;;;;7.90;100.00;101657.59;2091677;28;19927;-64
2021/11/14 04:06:24;;;;;;;;;;;;;;;7.90;100.00;101662.81;2091735;28;19913;-64
2021/11/14 04:07:24;;;;;;;;;;;;;;;7.90;100.00;101660.22;2091660;28;19917;-64
2021/11/14 04:08:25;;;;;;;;;;;;;;;7.90;100.00;101662.81;2091667;28;19908;-64
2021/11/14 04:09:26;;;;;;;;;;;;;;;7.91;100.00;101654.16;2091718;28;19912;-63
2021/11/14 04:10:27;;;;;;;;;;;;;;;7.91;100.00;101664.53;2094326;28;20327;-64
2021/11/14 04:11:27;;;;;;;;;;;;;;;7.89;100.00;101663.69;2091721;28;19931;-63
2021/11/14 04:12:27;;;;;;;;;;;;;;;7.89;100.00;101663.69;2091678;28;20366;-64
2021/11/14 04:13:31;;;;;;;;;;;;;;;7.89;100.00;101655.91;2091591;28;19954;-63
2021/11/14 04:14:31;;;;;;;;;;;;;;;7.88;100.00;101662.00;2090963;28;19935;-63
2021/11/14 04:15:32;;;;;;;;;;;;;;;7.86;100.00;101661.16;2091019;28;19948;-63
2021/11/14 04:16:32;;;;;;;;;;;;;;;7.85;100.00;101660.31;2091612;28;19909;-63
2021/11/14 04:17:32;;;;;;;;;;;;;;;7.85;100.00;101660.31;2091592;28;19908;-63
2021/11/14 04:18:33;;;;;;;;;;;;;;;7.84;100.00;101663.78;2090930;28;19915;-63
2021/11/14 04:19:33;;;;;;;;;;;;;;;7.83;100.00;101666.41;2091027;28;19909;-63
2021/11/14 04:20:34;;;;;;;;;;;;;;;7.82;100.00;101668.16;2090971;28;19909;-63
2021/11/14 04:21:35;;;;;;;;;;;;;;;7.80;100.00;101656.91;2090978;28;19995;-63
2021/11/14 04:22:35;;;;;;;;;;;;;;;7.79;100.00;101668.19;2091516;28;19921;-63
2021/11/14 04:23:36;;;;;;;;;;;;;;;7.78;100.00;101665.63;2091520;28;19920;-63
2021/11/14 04:24:36;;;;;;;;;;;;;;;7.79;100.00;101665.59;2091546;28;19919;-63
2021/11/14 04:25:37;;;;;;;;;;;;;;;7.81;100.00;101668.19;2091541;28;19955;-64
2021/11/14 04:26:38;;;;;;;;;;;;;;;7.81;100.00;101673.38;2091451;28;19962;-63
2021/11/14 04:27:38;;;;;;;;;;;;;;;7.81;100.00;101668.19;2090785;28;19967;-63
2021/11/14 04:28:38;;;;;;;;;;;;;;;7.81;100.00;101665.59;2090799;28;20358;-63
2021/11/14 04:29:39;;;;;;;;;;;;;;;7.84;100.00;101675.94;2091484;28;19920;-64
2021/11/14 04:30:40;;;;;;;;;;;;;;;7.85;100.00;101670.72;2090795;28;19909;-63
2021/11/14 04:31:40;;;;;;;;;;;;;;;7.84;100.00;101670.72;2093744;28;20293;-64
2021/11/14 04:32:40;;;;;;;;;;;;;;;7.85;100.00;101669.84;2091492;28;19912;-63
2021/11/14 04:33:41;;;;;;;;;;;;;;;7.85;100.00;101677.63;2091541;28;19913;-63
2021/11/14 04:34:42;;;;;;;;;;;;;;;7.85;100.00;101675.03;2091379;28;20440;-63
2021/11/14 04:35:42;;;;;;;;;;;;;;;7.83;100.00;101679.38;2091482;28;19916;-63
2021/11/14 04:36:42;;;;;;;;;;;;;;;7.84;100.00;101675.94;2091411;28;19947;-62
2021/11/14 04:37:43;;;;;;;;;;;;;;;7.83;100.00;101685.44;2091402;28;19952;-63
2021/11/14 04:38:43;;;;;;;;;;;;;;;7.83;100.00;101680.25;2091497;28;20263;-64
2021/11/14 04:39:43;;;;;;;;;;;;;;;7.85;100.00;101682.84;2091477;28;19955;-64
2021/11/14 04:40:46;;;;;;;;;;;;;;;7.85;100.00;101682.84;2090706;28;19913;-63
2021/11/14 04:41:46;;;;;;;;;;;;;;;7.85;100.00;101688.03;2090721;28;19963;-64
2021/11/14 04:42:47;;;;;;;;;;;;;;;7.85;100.00;101677.63;2091412;28;19982;-64
2021/11/14 04:43:47;;;;;;;;;;;;;;;7.84;100.00;101684.56;2090871;28;19916;-63
2021/11/14 04:44:48;;;;;;;;;;;;;;;7.84;100.00;101675.94;2090783;28;19947;-63
2021/11/14 04:45:49;;;;;;;;;;;;;;;7.82;100.00;101680.28;2090728;28;19909;-64
2021/11/14 04:46:49;;;;;;;;;;;;;;;7.80;100.00;101675.09;2090692;28;19920;-63
2021/11/14 04:47:50;;;;;;;;;;;;;;;7.80;100.00;101680.31;2091349;28;20350;-64
2021/11/14 04:48:50;;;;;;;;;;;;;;;7.80;100.00;101679.47;2091325;28;19946;-63
2021/11/14 04:49:50;;;;;;;;;;;;;;;7.80;100.00;101682.91;2090643;28;19908;-63
2021/11/14 04:50:51;;;;;;;;;;;;;;;7.80;100.00;101679.47;2090782;28;20305;-64
2021/11/14 04:51:52;;;;;;;;;;;;;;;7.81;100.00;101681.16;2090684;28;19995;-64
2021/11/14 04:52:52;;;;;;;;;;;;;;;7.79;100.00;101683.78;2090628;28;19909;-64
2021/11/14 04:53:53;;;;;;;;;;;;;;;7.79;100.00;101682.94;2090674;28;19912;-64
2021/11/14 04:54:53;;;;;;;;;;;;;;;7.78;100.00;101681.22;2090730;28;19917;-64
2021/11/14 04:55:53;;;;;;;;;;;;;;;7.79;100.00;101677.72;2091305;28;19908;-63
2021/11/14 04:56:53;;;;;;;;;;;;;;;7.78;100.00;101679.50;2091296;28;19913;-63
2021/11/14 04:57:54;;;;;;;;;;;;;;;7.78;100.00;101681.22;2091332;28;20400;-63
2021/11/14 04:58:54;;;;;;;;;;;;;;;7.77;100.00;101689.91;2090546;28;19987;-63
2021/11/14 04:59:54;;;;;;;;;;;;;;;7.78;100.00;101679.50;2090709;28;20289;-64
2021/11/14 05:00:55;;;;;;;;;;;;;;;7.79;100.00;101680.31;2091264;28;19915;-63
2021/11/14 05:01:55;;;;;;;;;;;;;;;7.78;100.00;101691.63;2091234;28;20054;-63
2021/11/14 05:02:56;;;;;;;;;;;;;;;7.78;100.00;101689.88;2090529;28;20385;-63
2021/11/14 05:03:56;;;;;;;;;;;;;;;7.78;100.00;101681.22;2082296;28;19971;-63
2021/11/14 05:04:56;;;;;;;;;;;;;;;7.79;100.00;101688.13;2090629;28;19904;-63
2021/11/14 05:05:57;;;;;;;;;;;;;;;7.80;100.00;101689.88;2090520;28;20408;-63
2021/11/14 05:06:57;;;;;;;;;;;;;;;7.79;100.00;101682.94;2090583;28;20005;-64
2021/11/14 05:07:57;;;;;;;;;;;;;;;7.81;100.00;101696.75;2091152;28;19913;-63
2021/11/14 05:08:58;;;;;;;;;;;;;;;7.80;100.00;101697.66;2091148;28;20059;-63
2021/11/14 05:09:58;;;;;;;;;;;;;;;7.80;100.00;101695.06;2090716;28;19962;-64
2021/11/14 05:10:58;;;;;;;;;;;;;;;7.79;100.00;101701.97;2090456;28;19952;-63
2021/11/14 05:11:59;;;;;;;;;;;;;;;7.79;100.00;101701.13;2090711;28;19917;-64